createdAt,value
2018-09-27T01:14:21.793Z,0.0
2018-09-27T08:48:53.257Z,69952.0
2018-09-27T09:13:20.995Z,68800.0
2018-09-27T09:27:45.412Z,74528.0
2018-09-27T09:55:21.994Z,76640.0
2018-09-27T10:07:43.171Z,81856.0
2018-09-27T10:20:24.568Z,76160.0
2018-09-27T10:32:57.767Z,86368.0
2018-09-27T10:48:28.783Z,87520.0
2018-09-27T11:01:04.092Z,90688.0
2018-09-27T11:13:52.940Z,82976.0
2018-09-27T11:26:40.746Z,82368.0
2018-09-27T11:39:28.591Z,80992.0
2018-09-27T11:52:21.979Z,78528.0
2018-09-27T12:05:35.182Z,79040.0
2018-09-27T12:15:49.497Z,80096.0
2018-09-27T12:26:17.256Z,73920.0
2018-09-27T12:37:41.433Z,77440.0
2018-09-27T12:50:30.795Z,78048.0
2018-09-27T13:02:24.157Z,73664.0
2018-09-27T13:13:10.177Z,67104.0
2018-09-27T13:23:54.973Z,69984.0
2018-09-27T13:34:08.634Z,66304.0
2018-09-27T13:44:53.845Z,63040.0
2018-09-27T13:56:08.081Z,56416.0
2018-09-27T14:09:54.760Z,24960.0
2018-09-27T14:20:07.333Z,24000.0
2018-09-27T14:30:21.223Z,23904.0
2018-09-27T14:52:49.752Z,22848.0
2018-09-27T15:04:44.432Z,6380.0
2018-09-27T15:16:05.513Z,6812.0
2018-09-27T15:27:24.861Z,4884.0
2018-09-27T15:38:15.077Z,4456.0
2018-09-27T15:51:03.453Z,4080.0
2018-09-27T16:04:48.973Z,3464.0
2018-09-27T16:16:19.151Z,2932.0
2018-09-27T16:28:36.343Z,2380.0
2018-09-27T16:41:30.140Z,1756.0
2018-09-27T16:52:40.051Z,1204.0
2018-09-27T17:18:57.750Z,248.0
2018-09-27T17:31:02.893Z,56.0
2018-09-27T17:43:21.227Z,8.0
2018-09-27T17:55:19.073Z,0.0
2018-09-27T18:06:01.919Z,0.0
2018-09-27T18:16:58.643Z,0.0
2018-09-27T18:27:45.894Z,0.0
2018-09-27T18:39:01.649Z,0.0
2018-09-27T18:50:09.911Z,0.0
2018-09-27T19:01:08.087Z,0.0
2018-09-27T19:11:49.911Z,0.0
2018-09-27T19:22:11.609Z,0.0
2018-09-27T19:33:46.328Z,0.0
2018-09-27T19:44:49.231Z,0.0
2018-09-27T20:08:53.855Z,0.0
2018-09-27T20:43:52.417Z,0.0
2018-09-27T20:54:35.627Z,0.0
2018-09-27T21:05:13.568Z,0.0
2018-09-27T21:15:54.893Z,0.0
2018-09-27T21:26:45.326Z,0.0
2018-09-27T21:37:49.093Z,0.0
2018-09-27T21:58:39.248Z,0.0
2018-09-27T22:09:11.863Z,0.0
2018-09-27T22:19:38.918Z,0.0
2018-09-27T22:30:53.657Z,0.0
2018-09-27T22:41:56.968Z,0.0
2018-09-27T22:53:13.362Z,0.0
2018-09-27T23:03:51.045Z,0.0
2018-09-27T23:15:07.670Z,0.0
2018-09-27T23:25:39.757Z,0.0
2018-09-27T23:36:17.485Z,0.0
2018-09-27T23:46:53.919Z,0.0
2018-09-27T23:58:13.884Z,0.0
